Time;durP1;ratioP1;P1;durP2;ratioP2;P2;SDS_P1;SDS_P2;PMS_P1;PMS_P2;Temp;Humidity;BMP_temperature;BMP_pressure;BME280_temperature;BME280_humidity;BME280_pressure;Samples;Min_cycle;Max_cycle;Signal;HPM_P1;HPM_P2
2021/10/23 00:00:23;;;;;;;5.67;1.47;;;;;;;3.46;100.00;100995.94;5081595;28;20205;-73
2021/10/23 00:02:50;;;;;;;6.57;1.20;;;;;;;3.44;100.00;100997.63;5076595;28;20209;-73
2021/10/23 00:05:16;;;;;;;3.90;1.13;;;;;;;3.50;100.00;101007.97;5084788;28;20190;-73
2021/10/23 00:07:43;;;;;;;9.07;1.40;;;;;;;3.52;100.00;101001.16;5082404;28;20242;-73
2021/10/23 00:10:10;;;;;;;2.77;1.17;;;;;;;3.55;100.00;100998.56;5079851;28;20205;-73
2021/10/23 00:12:36;;;;;;;4.20;1.60;;;;;;;3.55;100.00;101001.16;5080490;28;20203;-73
2021/10/23 00:15:05;;;;;;;5.83;1.50;;;;;;;3.57;100.00;100997.75;5086233;28;20523;-73
2021/10/23 00:17:32;;;;;;;8.97;1.90;;;;;;;3.56;100.00;100997.75;5074845;28;20626;-73
2021/10/23 00:20:00;;;;;;;9.07;1.30;;;;;;;3.56;100.00;101008.91;5083793;28;20209;-73
2021/10/23 00:22:27;;;;;;;9.70;1.80;;;;;;;3.61;100.00;101003.81;5074458;28;20221;-73
2021/10/23 00:24:53;;;;;;;4.63;1.47;;;;;;;3.69;100.00;101003.84;5082423;28;20234;-74
2021/10/23 00:27:19;;;;;;;5.83;1.57;;;;;;;3.65;100.00;101005.56;5082196;28;20215;-73
2021/10/23 00:29:46;;;;;;;5.93;1.80;;;;;;;3.68;100.00;101004.72;5077261;28;20892;-73
2021/10/23 00:32:14;;;;;;;9.23;1.80;;;;;;;3.64;100.00;101009.00;5077173;28;20225;-72
2021/10/23 00:34:41;;;;;;;4.90;1.30;;;;;;;3.64;100.00;101014.16;5081006;28;20209;-73
2021/10/23 00:37:07;;;;;;;5.97;1.60;;;;;;;3.68;100.00;101012.47;5080955;28;20276;-73
2021/10/23 00:39:33;;;;;;;8.00;1.30;;;;;;;3.66;100.00;101011.56;5076391;28;20213;-73
2021/10/23 00:42:00;;;;;;;10.40;2.10;;;;;;;3.68;100.00;101012.47;5076084;28;20252;-73
2021/10/23 00:44:31;;;;;;;6.30;1.20;;;;;;;3.66;100.00;101025.34;5078628;28;20693;-74
2021/10/23 00:47:01;;;;;;;5.80;1.50;;;;;;;3.68;100.00;101013.31;5077381;28;20217;-73
2021/10/23 00:49:29;;;;;;;7.63;1.70;;;;;;;3.69;100.00;101015.03;5084828;28;20671;-73
2021/10/23 00:51:57;;;;;;;8.13;1.70;;;;;;;3.71;100.00;101027.94;5075524;28;20226;-73
2021/10/23 00:54:25;;;;;;;7.40;1.50;;;;;;;3.69;100.00;101030.50;5075851;28;20194;-73
2021/10/23 00:56:52;;;;;;;5.80;1.30;;;;;;;3.69;100.00;101038.25;5079172;28;20203;-73
2021/10/23 00:59:18;;;;;;;6.43;1.40;;;;;;;3.67;100.00;101031.34;5081885;28;20209;-73
2021/10/23 01:01:45;;;;;;;12.27;1.77;;;;;;;3.64;100.00;101034.78;5075381;28;20246;-73
2021/10/23 01:04:11;;;;;;;7.17;1.40;;;;;;;3.65;100.00;101039.06;5080991;28;20482;-73
2021/10/23 01:06:39;;;;;;;2.50;1.50;;;;;;;3.60;100.00;101035.59;5080714;28;20236;-73
2021/10/23 01:09:06;;;;;;;9.47;1.77;;;;;;;3.59;100.00;101034.72;5074405;28;20288;-73
2021/10/23 01:11:33;;;;;;;3.70;1.50;;;;;;;3.58;100.00;101033.00;5081186;28;20573;-73
2021/10/23 01:14:00;;;;;;;4.03;1.20;;;;;;;3.58;100.00;101033.00;5078529;28;20217;-73
2021/10/23 01:16:27;;;;;;;12.30;1.53;;;;;;;3.58;100.00;101045.88;5079297;28;20207;-73
2021/10/23 01:18:53;;;;;;;5.97;1.27;;;;;;;3.59;100.00;101045.03;5077404;28;20605;-73
2021/10/23 01:21:22;;;;;;;12.20;1.57;;;;;;;3.59;100.00;101039.03;5081162;28;20304;-73
2021/10/23 01:23:48;;;;;;;5.07;1.50;;;;;;;3.57;100.00;101051.03;5074199;28;20219;-74
2021/10/23 01:26:15;;;;;;;6.57;1.33;;;;;;;3.52;100.00;101052.72;5088337;28;20201;-73
2021/10/23 01:28:41;;;;;;;8.23;1.53;;;;;;;3.54;100.00;101048.44;5080306;28;20205;-73
2021/10/23 01:31:08;;;;;;;5.90;1.33;;;;;;;3.48;100.00;101056.09;5081583;28;20230;-73
2021/10/23 01:33:34;;;;;;;3.90;1.30;;;;;;;3.47;100.00;101062.13;5077272;28;20230;-73
2021/10/23 01:36:08;;;;;;;2.53;1.13;;;;;;;3.44;100.00;101062.94;5082499;28;20209;-73
2021/10/23 01:38:36;;;;;;;4.27;1.10;;;;;;;3.46;100.00;101063.81;5078343;28;20197;-73
2021/10/23 01:41:02;;;;;;;7.03;1.23;;;;;;;3.46;100.00;101068.13;5076468;28;20229;-73
2021/10/23 01:43:29;;;;;;;6.87;1.40;;;;;;;3.41;100.00;101075.78;5077040;28;20199;-73
2021/10/23 01:45:55;;;;;;;8.70;1.33;;;;;;;3.39;100.00;101073.22;5080411;28;20679;-73
2021/10/23 01:48:22;;;;;;;7.40;1.70;;;;;;;3.41;100.00;101074.09;5079030;28;20228;-72
2021/10/23 01:50:48;;;;;;;7.23;1.30;;;;;;;3.39;100.00;101080.06;5082586;28;20226;-73
2021/10/23 01:53:15;;;;;;;8.37;1.40;;;;;;;3.38;100.00;101080.94;5082272;28;20201;-73
2021/10/23 01:55:42;;;;;;;5.57;1.40;;;;;;;3.32;100.00;101083.44;5080922;28;20197;-73
2021/10/23 01:58:09;;;;;;;9.03;1.43;;;;;;;3.38;100.00;101091.25;5080380;28;20614;-73
2021/10/23 02:00:36;;;;;;;2.40;1.43;;;;;;;3.35;100.00;101083.47;5083527;28;20214;-73
2021/10/23 02:03:03;;;;;;;5.23;1.63;;;;;;;3.33;100.00;101091.19;5079897;28;20205;-73
2021/10/23 02:05:29;;;;;;;6.60;1.73;;;;;;;3.32;100.00;101088.59;5075352;28;20202;-73
2021/10/23 02:07:56;;;;;;;5.17;1.33;;;;;;;3.29;100.00;101091.13;5075539;28;20228;-73
2021/10/23 02:10:22;;;;;;;2.07;0.90;;;;;;;3.25;100.00;101091.94;5076669;28;20194;-73
2021/10/23 02:12:50;;;;;;;3.87;1.40;;;;;;;3.23;100.00;101089.34;5078163;28;20252;-73
2021/10/23 02:15:16;;;;;;;8.23;1.30;;;;;;;3.21;100.00;101099.63;5080403;28;20289;-73
2021/10/23 02:17:43;;;;;;;4.70;1.50;;;;;;;3.17;100.00;101095.31;5077263;28;20205;-73
2021/10/23 02:20:11;;;;;;;9.47;1.10;;;;;;;3.19;100.00;101097.91;5077367;28;20203;-72
2021/10/23 02:22:38;;;;;;;2.93;1.20;;;;;;;3.16;100.00;101097.84;5084423;28;20200;-73
2021/10/23 02:25:06;;;;;;;5.90;1.47;;;;;;;3.16;100.00;101109.03;5083521;28;20216;-73
2021/10/23 02:27:33;;;;;;;8.90;1.30;;;;;;;3.13;100.00;101102.97;5079778;28;20216;-73
2021/10/23 02:30:01;;;;;;;8.30;1.57;;;;;;;3.11;100.00;101109.81;5083763;28;20228;-72
2021/10/23 02:32:27;;;;;;;4.90;1.30;;;;;;;3.07;100.00;101116.66;5074681;28;20260;-73
2021/10/23 02:34:54;;;;;;;5.90;1.47;;;;;;;3.05;100.00;101115.75;5083104;28;20209;-73
2021/10/23 02:37:20;;;;;;;9.23;1.30;;;;;;;2.99;100.00;101110.53;5082237;28;20198;-73
2021/10/23 02:39:47;;;;;;;7.80;2.13;;;;;;;2.95;100.00;101119.06;5076517;28;20209;-73
2021/10/23 02:42:13;;;;;;;4.43;1.50;;;;;;;2.97;100.00;101127.66;5080871;28;20211;-73
2021/10/23 02:44:41;;;;;;;7.93;1.40;;;;;;;3.00;100.00;101125.16;5082321;28;20263;-73
2021/10/23 02:47:09;;;;;;;14.93;1.50;;;;;;;3.00;100.00;101130.28;5083684;28;20210;-73
2021/10/23 02:49:37;;;;;;;12.77;2.00;;;;;;;3.00;100.00;101127.72;5082279;28;20193;-73
2021/10/23 02:52:04;;;;;;;3.77;1.27;;;;;;;2.96;100.00;101124.25;5075897;28;20215;-73
2021/10/23 02:54:30;;;;;;;7.53;1.60;;;;;;;2.92;100.00;101126.75;5079668;28;20198;-73
2021/10/23 02:56:57;;;;;;;9.67;1.70;;;;;;;2.87;100.00;101136.13;5082624;28;20203;-73
2021/10/23 02:59:23;;;;;;;6.37;1.73;;;;;;;2.83;100.00;101143.81;5082061;28;20300;-73
2021/10/23 03:01:50;;;;;;;10.23;1.50;;;;;;;2.86;100.00;101149.84;5081084;28;20294;-73
2021/10/23 03:04:18;;;;;;;8.73;1.43;;;;;;;2.88;100.00;101149.03;5081423;28;20206;-73
2021/10/23 03:06:45;;;;;;;10.87;1.20;;;;;;;2.88;100.00;101146.44;5081974;28;20212;-73
2021/10/23 03:09:12;;;;;;;8.43;1.40;;;;;;;2.89;100.00;101155.06;5072632;28;20284;-73
2021/10/23 03:11:38;;;;;;;8.50;1.23;;;;;;;2.92;100.00;101155.97;5083253;28;20222;-73
2021/10/23 03:14:05;;;;;;;9.20;1.77;;;;;;;2.94;100.00;101159.44;5082968;28;20202;-72
2021/10/23 03:16:31;;;;;;;6.33;1.07;;;;;;;2.94;100.00;101158.56;5082848;28;20228;-73
2021/10/23 03:18:58;;;;;;;10.67;1.50;;;;;;;2.97;100.00;101161.16;5083932;28;20696;-73
2021/10/23 03:21:26;;;;;;;8.10;1.50;;;;;;;2.95;100.00;101162.84;5081861;28;20585;-73
2021/10/23 03:23:53;;;;;;;14.70;1.80;;;;;;;2.91;100.00;101163.66;5079059;28;20624;-73
2021/10/23 03:26:19;;;;;;;10.40;1.53;;;;;;;2.88;100.00;101168.78;5083942;28;20716;-73
2021/10/23 03:28:46;;;;;;;7.30;1.17;;;;;;;2.87;100.00;101173.06;5085613;28;20214;-73
2021/10/23 03:31:12;;;;;;;8.57;1.63;;;;;;;2.85;100.00;101167.03;5080819;28;20236;-73
2021/10/23 03:33:39;;;;;;;7.70;1.47;;;;;;;2.85;100.00;101174.75;5083965;28;20203;-74
2021/10/23 03:36:06;;;;;;;10.23;1.57;;;;;;;2.81;100.00;101179.00;5079226;28;20201;-73
2021/10/23 03:38:34;;;;;;;7.57;1.33;;;;;;;2.80;100.00;101184.13;5082660;28;20295;-73
2021/10/23 03:41:00;;;;;;;9.97;1.47;;;;;;;2.79;100.00;101177.22;5081926;28;20224;-73
2021/10/23 03:43:27;;;;;;;10.47;1.73;;;;;;;2.76;100.00;101192.63;5083192;28;20685;-73
2021/10/23 03:45:54;;;;;;;6.23;1.27;;;;;;;2.78;100.00;101190.94;5084052;28;20217;-73
2021/10/23 03:48:20;;;;;;;6.37;1.30;;;;;;;2.79;100.00;101192.69;5082875;28;20206;-73
2021/10/23 03:50:47;;;;;;;5.47;1.50;;;;;;;2.70;100.00;101206.28;5078072;28;20582;-73
2021/10/23 03:53:13;;;;;;;11.70;1.50;;;;;;;2.67;100.00;101207.94;5084673;28;20663;-73
2021/10/23 03:55:41;;;;;;;5.43;1.13;;;;;;;2.76;100.00;101214.13;5080154;28;20199;-73
2021/10/23 03:58:10;;;;;;;8.10;1.40;;;;;;;2.76;100.00;101214.13;5082978;28;20209;-73
2021/10/23 04:00:36;;;;;;;12.07;1.47;;;;;;;2.79;100.00;101221.88;5079349;28;20228;-73
2021/10/23 04:03:03;;;;;;;9.07;1.20;;;;;;;2.88;100.00;101213.41;5082124;28;20240;-73
2021/10/23 04:05:29;;;;;;;3.93;1.50;;;;;;;2.86;100.00;101216.81;5080926;28;20738;-73
2021/10/23 04:07:56;;;;;;;10.53;1.77;;;;;;;2.91;100.00;101210.03;5074265;28;20214;-73
2021/10/23 04:10:22;;;;;;;3.53;1.13;;;;;;;2.97;100.00;101208.41;5078232;28;20202;-73
2021/10/23 04:12:51;;;;;;;3.30;1.17;;;;;;;3.05;100.00;101208.53;5081719;28;20198;-73
2021/10/23 04:15:17;;;;;;;10.00;1.23;;;;;;;3.06;100.00;101215.41;5079567;28;20625;-73
2021/10/23 04:17:44;;;;;;;11.60;1.83;;;;;;;3.04;100.00;101214.50;5076478;28;20215;-73
2021/10/23 04:20:12;;;;;;;11.03;1.50;;;;;;;3.05;100.00;101215.38;5076054;28;20212;-73
2021/10/23 04:22:39;;;;;;;5.70;1.27;;;;;;;3.09;100.00;101206.84;5083230;28;20216;-73
2021/10/23 04:25:06;;;;;;;12.63;1.57;;;;;;;3.08;100.00;101216.31;5085795;28;20202;-73
2021/10/23 04:27:32;;;;;;;9.60;1.67;;;;;;;3.05;100.00;101225.69;5082226;28;20226;-73
2021/10/23 04:30:00;;;;;;;8.93;1.60;;;;;;;3.03;100.00;101228.25;5079561;28;20488;-73
2021/10/23 04:32:27;;;;;;;5.87;1.40;;;;;;;2.98;100.00;101241.06;5071695;28;20279;-73
2021/10/23 04:34:53;;;;;;;5.03;1.27;;;;;;;2.96;100.00;101244.47;5080494;28;20198;-73
2021/10/23 04:37:20;;;;;;;13.17;1.57;;;;;;;2.98;100.00;101247.91;5082715;28;20205;-73
2021/10/23 04:39:46;;;;;;;10.13;1.10;;;;;;;2.98;100.00;101248.78;5080387;28;20574;-73
2021/10/23 04:42:12;;;;;;;6.97;1.50;;;;;;;2.99;100.00;101241.91;5081768;28;20229;-73
2021/10/23 04:44:39;;;;;;;8.90;1.47;;;;;;;2.98;100.00;101247.91;5085741;28;20748;-73
2021/10/23 04:47:06;;;;;;;4.90;1.37;;;;;;;3.01;100.00;101253.13;5080823;28;20197;-73
2021/10/23 04:49:33;;;;;;;7.53;1.77;;;;;;;3.03;100.00;101254.00;5080116;28;20213;-73
2021/10/23 04:51:59;;;;;;;9.53;1.80;;;;;;;3.03;100.00;101249.72;5080172;28;20222;-73
2021/10/23 04:54:26;;;;;;;7.73;1.60;;;;;;;3.01;100.00;101248.84;5081536;28;20203;-73
2021/10/23 04:56:52;;;;;;;7.97;1.43;;;;;;;2.98;100.00;101260.81;5076820;28;20933;-73
2021/10/23 04:59:19;;;;;;;8.07;1.30;;;;;;;2.98;100.00;101259.09;5080935;28;20308;-73
2021/10/23 05:01:45;;;;;;;10.70;1.23;;;;;;;2.92;100.00;101253.84;5081371;28;20271;-73
2021/10/23 05:04:13;;;;;;;9.20;1.50;;;;;;;2.94;100.00;101251.31;5079452;28;20209;-73
2021/10/23 05:06:39;;;;;;;7.27;1.10;;;;;;;2.90;100.00;101255.50;5077482;28;20194;-73
2021/10/23 05:09:06;;;;;;;7.77;1.47;;;;;;;2.84;100.00;101258.00;5079931;28;20703;-73
2021/10/23 05:11:33;;;;;;;5.80;1.40;;;;;;;2.81;100.00;101265.69;5084333;28;20336;-73
2021/10/23 05:13:59;;;;;;;2.40;1.00;;;;;;;2.79;100.00;101267.38;5080546;28;20226;-73
2021/10/23 05:16:25;;;;;;;9.23;1.53;;;;;;;2.77;100.00;101274.22;5082426;28;20562;-73
2021/10/23 05:18:52;;;;;;;5.33;1.30;;;;;;;2.73;100.00;101270.72;5075525;28;20587;-73
2021/10/23 05:21:20;;;;;;;8.57;1.80;;;;;;;2.76;100.00;101264.72;5082744;28;20235;-73
2021/10/23 05:23:49;;;;;;;5.03;1.27;;;;;;;2.79;100.00;101281.09;5078531;28;20580;-73
2021/10/23 05:26:15;;;;;;;11.83;1.30;;;;;;;2.83;100.00;101282.03;5086551;28;20206;-73
2021/10/23 05:28:42;;;;;;;9.23;1.50;;;;;;;2.91;100.00;101279.59;5075591;28;20885;-73
2021/10/23 05:31:09;;;;;;;8.10;1.53;;;;;;;3.00;100.00;101285.72;5080933;28;20218;-73
2021/10/23 05:33:35;;;;;;;7.30;1.50;;;;;;;3.09;100.00;101291.88;5076285;28;20189;-73
2021/10/23 05:36:01;;;;;;;7.27;1.40;;;;;;;3.11;100.00;101296.19;5081223;28;20216;-73
2021/10/23 05:38:29;;;;;;;7.20;1.50;;;;;;;3.16;100.00;101291.97;5075709;28;20518;-73
2021/10/23 05:40:56;;;;;;;6.60;1.33;;;;;;;3.18;100.00;101294.59;5079823;28;20209;-73
2021/10/23 05:43:22;;;;;;;5.37;1.70;;;;;;;3.18;100.00;101287.75;5081746;28;20301;-73
2021/10/23 05:45:49;;;;;;;10.43;1.53;;;;;;;3.22;100.00;101296.38;5082241;28;20277;-73
2021/10/23 05:48:15;;;;;;;5.03;1.63;;;;;;;3.22;100.00;101299.81;5075533;28;20210;-73
2021/10/23 05:50:42;;;;;;;7.20;1.43;;;;;;;3.27;100.00;101304.16;5073253;28;20237;-73
2021/10/23 05:53:09;;;;;;;7.77;1.47;;;;;;;3.31;100.00;101301.66;5076776;28;20202;-73
2021/10/23 05:55:36;;;;;;;6.17;1.50;;;;;;;3.34;100.00;101301.72;5081358;28;20213;-73
2021/10/23 05:58:04;;;;;;;10.03;1.53;;;;;;;3.39;100.00;101309.50;5084176;28;20192;-73
2021/10/23 06:00:33;;;;;;;5.97;1.43;;;;;;;3.39;100.00;101306.91;5081852;28;20300;-73
2021/10/23 06:03:00;;;;;;;13.63;1.67;;;;;;;3.45;100.00;101308.72;5079594;28;20750;-73
2021/10/23 06:05:27;;;;;;;6.07;1.47;;;;;;;3.49;100.00;101311.38;5085060;28;20209;-73
2021/10/23 06:07:54;;;;;;;6.43;1.83;;;;;;;3.51;100.00;101307.09;5076397;28;20675;-73
2021/10/23 06:10:21;;;;;;;7.80;1.70;;;;;;;3.54;100.00;101317.47;5084726;28;20199;-73
2021/10/23 06:12:50;;;;;;;9.73;2.30;;;;;;;3.56;100.00;101326.06;5081414;28;20206;-73
2021/10/23 06:15:16;;;;;;;6.23;1.87;;;;;;;3.57;100.00;101327.81;5082582;28;20274;-73
2021/10/23 06:17:43;;;;;;;4.13;1.43;;;;;;;3.64;100.00;101328.78;5081699;28;20210;-73
2021/10/23 06:20:11;;;;;;;7.33;1.63;;;;;;;3.66;100.00;101339.97;5079451;28;20302;-73
2021/10/23 06:22:37;;;;;;;7.80;1.70;;;;;;;3.72;100.00;101339.19;5086231;28;20194;-73
2021/10/23 06:25:04;;;;;;;5.73;1.47;;;;;;;3.77;100.00;101343.56;5074166;28;20554;-74
2021/10/23 06:27:30;;;;;;;10.33;1.57;;;;;;;3.82;100.00;101347.91;5084299;28;20197;-73
2021/10/23 06:29:58;;;;;;;6.97;1.60;;;;;;;3.86;100.00;101355.72;5079857;28;20601;-73
2021/10/23 06:32:24;;;;;;;8.47;1.60;;;;;;;3.89;100.00;101352.31;5080447;28;20220;-73
2021/10/23 06:34:51;;;;;;;5.33;1.57;;;;;;;3.93;100.00;101356.66;5078563;28;20202;-74
2021/10/23 06:37:19;;;;;;;7.10;1.30;;;;;;;3.98;100.00;101362.75;5080949;28;20251;-73
2021/10/23 06:39:46;;;;;;;7.30;1.30;;;;;;;4.00;100.00;101367.94;5078740;28;20209;-73
2021/10/23 06:42:12;;;;;;;5.77;1.40;;;;;;;4.00;100.00;101367.94;5076268;28;20222;-73
2021/10/23 06:44:39;;;;;;;11.07;1.90;;;;;;;4.07;100.00;101372.31;5080428;28;20186;-73
2021/10/23 06:47:06;;;;;;;9.87;1.50;;;;;;;4.09;100.00;101379.22;5080165;28;20296;-73
2021/10/23 06:49:33;;;;;;;3.33;1.50;;;;;;;4.11;100.00;101382.69;5080187;28;20279;-73
2021/10/23 06:51:59;;;;;;;6.33;1.70;;;;;;;4.14;100.00;101390.47;5079168;28;20606;-74
2021/10/23 06:54:26;;;;;;;2.53;1.43;;;;;;;4.13;100.00;101396.50;5076678;28;20202;-73
2021/10/23 06:56:52;;;;;;;5.90;1.37;;;;;;;4.13;100.00;101404.25;5082830;28;20206;-73
2021/10/23 06:59:18;;;;;;;9.03;1.30;;;;;;;4.19;100.00;101406.03;5080255;28;20187;-73
2021/10/23 07:01:45;;;;;;;6.47;1.33;;;;;;;4.29;100.00;101407.88;5083558;28;20303;-73
2021/10/23 07:04:13;;;;;;;7.47;1.50;;;;;;;4.38;100.00;101407.13;5082754;28;20599;-73
2021/10/23 07:06:39;;;;;;;5.10;1.27;;;;;;;4.50;100.00;101414.13;5081043;28;20199;-73
2021/10/23 07:09:05;;;;;;;10.10;1.67;;;;;;;4.57;100.00;101415.94;5080494;28;20218;-73
2021/10/23 07:11:32;;;;;;;6.17;1.53;;;;;;;4.62;100.00;101413.41;5083296;28;20221;-73
2021/10/23 07:13:58;;;;;;;5.23;1.50;;;;;;;4.64;100.00;101417.72;5081498;28;20216;-73
2021/10/23 07:16:25;;;;;;;8.23;1.77;;;;;;;4.70;100.00;101430.72;5078635;28;20566;-73
2021/10/23 07:18:51;;;;;;;9.07;2.27;;;;;;;4.73;100.00;101429.88;5080140;28;20622;-73
2021/10/23 07:21:19;;;;;;;12.03;2.10;;;;;;;4.77;100.00;101438.53;5081075;28;20312;-74
2021/10/23 07:23:45;;;;;;;7.50;1.93;;;;;;;4.76;100.00;101427.34;5083078;28;20198;-74
2021/10/23 07:26:12;;;;;;;4.13;2.10;;;;;;;4.80;100.00;101438.56;5077518;28;20654;-74
2021/10/23 07:28:38;;;;;;;5.67;1.50;;;;;;;4.80;100.00;101443.75;5084665;28;20214;-74
2021/10/23 07:31:04;;;;;;;5.23;1.20;;;;;;;4.86;100.00;101449.84;5078127;28;20681;-74
2021/10/23 07:33:31;;;;;;;6.67;1.50;;;;;;;4.90;100.00;101450.75;5075893;28;20206;-74
2021/10/23 07:35:58;;;;;;;7.10;1.43;;;;;;;4.96;100.00;101458.56;5080345;28;20206;-74
2021/10/23 07:38:26;;;;;;;4.43;1.37;;;;;;;5.00;100.00;101452.56;5084317;28;20212;-72
2021/10/23 07:40:52;;;;;;;7.23;1.50;;;;;;;5.04;100.00;101463.81;5079640;28;20236;-74
2021/10/23 07:43:18;;;;;;;5.90;1.70;;;;;;;5.03;100.00;101470.72;5088924;28;20752;-74
2021/10/23 07:45:47;;;;;;;5.13;2.20;;;;;;;5.02;100.00;101476.72;5086222;28;20288;-73
2021/10/23 07:48:15;;;;;;;9.43;2.13;;;;;;;5.06;100.00;101478.47;5081837;28;20238;-74
2021/10/23 07:50:42;;;;;;;7.90;2.33;;;;;;;5.08;100.00;101486.25;5084134;28;20219;-74
2021/10/23 07:53:08;;;;;;;3.30;1.70;;;;;;;5.18;100.00;101477.72;5079222;28;20520;-74
2021/10/23 07:55:36;;;;;;;13.87;2.40;;;;;;;5.30;100.00;101489.91;5083553;28;20202;-74
2021/10/23 07:58:03;;;;;;;11.10;1.70;;;;;;;5.41;100.00;101487.44;5081776;28;20757;-74
2021/10/23 08:00:30;;;;;;;5.27;1.63;;;;;;;5.50;100.00;101496.16;5079824;28;20225;-74
2021/10/23 08:02:58;;;;;;;15.00;5.60;;;;;;;5.60;100.00;101496.22;5082506;28;20197;-74
2021/10/23 08:05:27;;;;;;;8.73;4.80;;;;;;;5.64;100.00;101498.81;5087812;28;20201;-74
2021/10/23 08:07:55;;;;;;;6.33;2.50;;;;;;;5.64;100.00;101498.81;5085687;28;20210;-74
2021/10/23 08:10:23;;;;;;;6.70;2.97;;;;;;;5.62;100.00;101508.31;5082692;28;20218;-74
2021/10/23 08:12:52;;;;;;;9.13;2.00;;;;;;;5.57;100.00;101512.56;5079283;28;20207;-74
2021/10/23 08:15:18;;;;;;;10.17;2.10;;;;;;;5.53;100.00;101521.16;5082233;28;20206;-74
2021/10/23 08:17:45;;;;;;;5.97;1.97;;;;;;;5.49;100.00;101520.28;5076762;28;20206;-74
2021/10/23 08:20:13;;;;;;;9.80;3.67;;;;;;;5.50;100.00;101522.03;5079384;28;20370;-74
2021/10/23 08:22:40;;;;;;;6.27;2.20;;;;;;;5.48;100.00;101525.44;5079974;28;20198;-74
2021/10/23 08:25:10;;;;;;;7.93;2.80;;;;;;;5.44;100.00;101518.50;5075986;28;20964;-74
2021/10/23 08:27:38;;;;;;;12.07;6.03;;;;;;;5.40;100.00;101524.47;5076303;28;20302;-74
2021/10/23 08:30:09;;;;;;;21.53;8.97;;;;;;;5.48;100.00;101535.78;5079069;28;20226;-74
2021/10/23 08:32:37;;;;;;;13.30;4.90;;;;;;;5.65;100.00;101535.94;5085028;28;20227;-74
2021/10/23 08:35:04;;;;;;;9.63;2.17;;;;;;;5.82;100.00;101529.19;5081656;28;20185;-74
2021/10/23 08:37:31;;;;;;;6.80;2.00;;;;;;;5.99;100.00;101538.81;5082895;28;20358;-74
2021/10/23 08:39:57;;;;;;;4.87;1.90;;;;;;;6.06;100.00;101546.63;5077212;28;20289;-74
2021/10/23 08:42:25;;;;;;;11.33;2.03;;;;;;;6.09;100.00;101539.78;5080725;28;20251;-73
2021/10/23 08:44:53;;;;;;;10.27;2.20;;;;;;;6.08;100.00;101538.88;5080652;28;20206;-74
2021/10/23 08:47:21;;;;;;;13.23;2.13;;;;;;;6.04;100.00;101550.09;5081767;28;20217;-74
2021/10/23 08:49:49;;;;;;;4.87;1.80;;;;;;;6.05;100.00;101557.88;5080897;28;20650;-74
2021/10/23 08:52:16;;;;;;;7.70;2.30;;;;;;;6.18;100.00;101570.91;5081082;28;20225;-74
2021/10/23 08:54:42;;;;;;;10.53;2.57;;;;;;;6.29;100.00;101570.97;5077964;28;20202;-74
2021/10/23 08:57:08;;;;;;;8.20;1.90;;;;;;;6.35;100.00;101571.00;5076586;28;20697;-74
2021/10/23 08:59:35;;;;;;;6.87;3.00;;;;;;;6.33;99.04;101583.06;5076260;28;20202;-74
2021/10/23 09:02:03;;;;;;;10.63;2.47;;;;;;;6.28;99.06;101579.59;5078451;28;20307;-74
2021/10/23 09:04:33;;;;;;;5.80;1.77;;;;;;;6.30;98.57;101585.63;5078945;28;20200;-74
2021/10/23 09:07:07;;;;;;;4.50;2.20;;;;;;;6.35;98.43;101591.72;5081891;28;20252;-74
2021/10/23 09:09:44;;;;;;;9.17;3.00;;;;;;;6.34;96.52;101603.81;5076385;28;20227;-74
2021/10/23 09:12:17;;;;;;;8.80;2.30;;;;;;;6.34;96.62;101595.19;5082727;28;20324;-74
2021/10/23 09:14:44;;;;;;;6.77;2.23;;;;;;;6.39;98.30;101593.50;5084827;28;20213;-74
2021/10/23 09:17:13;;;;;;;6.93;1.40;;;;;;;6.43;97.73;101601.28;5081347;28;20229;-74
2021/10/23 09:19:43;;;;;;;11.27;2.70;;;;;;;6.55;97.11;101605.66;5075477;28;20194;-74
2021/10/23 09:22:26;;;;;;;11.10;2.20;;;;;;;6.64;96.39;101607.44;5076909;28;20313;-74
2021/10/23 09:25:08;;;;;;;9.90;2.53;;;;;;;6.80;96.00;101617.03;5083213;28;20764;-74
2021/10/23 09:27:34;;;;;;;6.03;2.27;;;;;;;6.93;95.58;101622.28;5076095;28;20255;-74
2021/10/23 09:30:01;;;;;;;9.80;2.23;;;;;;;7.09;95.45;101633.59;5074226;28;20646;-74
2021/10/23 09:32:33;;;;;;;6.87;1.43;;;;;;;7.07;94.06;101627.53;5082036;28;20244;-75
2021/10/23 09:35:11;;;;;;;8.67;2.40;;;;;;;7.03;94.59;101628.41;5087475;28;20194;-74
2021/10/23 09:37:38;;;;;;;8.77;1.83;;;;;;;7.09;94.67;101629.28;5080291;28;20606;-74
2021/10/23 09:40:06;;;;;;;5.13;1.63;;;;;;;7.20;94.48;101632.78;5081951;28;20281;-74
2021/10/23 09:42:32;;;;;;;9.77;2.13;;;;;;;7.28;94.67;101629.34;5079961;28;20293;-74
2021/10/23 09:45:02;;;;;;;3.93;1.77;;;;;;;7.36;95.56;101614.69;5092144;28;20659;-75
2021/10/23 09:47:32;;;;;;;3.27;1.60;;;;;;;7.47;93.43;101622.50;5082833;28;20205;-74
2021/10/23 09:50:10;;;;;;;5.20;2.10;;;;;;;7.61;94.45;101631.19;5083832;28;20304;-74
2021/10/23 09:52:58;;;;;;;8.37;1.60;;;;;;;7.72;92.35;101631.19;5081797;28;20616;-74
2021/10/23 09:55:27;;;;;;;5.80;1.80;;;;;;;7.82;92.23;101626.91;5087817;28;20700;-74
2021/10/23 09:58:07;;;;;;;7.07;1.90;;;;;;;8.10;93.02;101619.97;5083059;28;20200;-74
2021/10/23 10:00:33;;;;;;;6.63;2.63;;;;;;;8.41;91.62;101630.34;5082203;28;20707;-74
2021/10/23 10:03:01;;;;;;;6.13;1.77;;;;;;;8.62;90.77;101622.56;5082374;28;20708;-74
2021/10/23 10:05:30;;;;;;;6.27;1.73;;;;;;;8.78;88.20;101640.75;5080107;28;20659;-75
2021/10/23 10:07:58;;;;;;;5.73;1.83;;;;;;;8.60;86.08;101633.81;5086172;28;20201;-74
2021/10/23 10:10:24;;;;;;;3.53;1.40;;;;;;;8.46;86.96;101637.31;5078811;28;20555;-75
2021/10/23 10:12:51;;;;;;;4.37;1.43;;;;;;;8.30;86.48;101628.66;5080503;28;20248;-74
2021/10/23 10:15:17;;;;;;;2.43;1.40;;;;;;;8.23;86.71;101629.53;5080995;28;20317;-74
2021/10/23 10:17:44;;;;;;;9.87;2.00;;;;;;;8.15;86.39;101634.69;5080503;28;20297;-74
2021/10/23 10:20:12;;;;;;;8.13;2.10;;;;;;;8.14;86.13;101632.09;5080841;28;20205;-75
2021/10/23 10:22:51;;;;;;;7.53;1.63;;;;;;;8.36;87.67;101632.97;5085720;28;20819;-74
2021/10/23 10:25:20;;;;;;;6.07;1.50;;;;;;;8.49;86.48;101634.69;5086482;28;20240;-74
2021/10/23 10:27:47;;;;;;;7.13;1.50;;;;;;;8.58;85.60;101653.75;5084197;28;20201;-75
2021/10/23 10:30:24;;;;;;;5.17;1.53;;;;;;;8.63;84.49;101644.22;5082127;28;20610;-74
2021/10/23 10:32:52;;;;;;;4.27;1.30;;;;;;;8.62;85.09;101642.47;5080881;28;20259;-74
2021/10/23 10:35:46;;;;;;;11.63;1.93;;;;;;;8.60;83.52;101647.72;5079272;28;20198;-74
2021/10/23 10:38:53;;;;;;;7.23;1.77;;;;;;;8.54;84.28;101658.09;5083284;28;20292;-74
2021/10/23 10:44:29;;;;;;;7.13;1.67;;;;;;;8.85;83.19;101668.47;5076016;28;20876;-74
2021/10/23 10:47:11;;;;;;;6.53;1.33;;;;;;;8.84;82.65;101667.56;5063923;28;20195;-75
2021/10/23 10:49:53;;;;;;;5.50;1.43;;;;;;;8.89;83.57;101681.44;5082969;28;20704;-74
2021/10/23 10:52:51;;;;;;;4.00;1.40;;;;;;;8.90;80.91;101680.56;5086954;28;20232;-74
2021/10/23 10:55:19;;;;;;;4.13;1.33;;;;;;;8.87;82.26;101677.97;5079993;28;20233;-74
2021/10/23 10:58:00;;;;;;;5.07;1.73;;;;;;;9.02;81.66;101665.78;5079355;28;20204;-74
2021/10/23 11:01:09;;;;;;;6.60;1.60;;;;;;;9.14;81.77;101670.94;5082694;28;20209;-75
2021/10/23 11:03:38;;;;;;;9.00;1.70;;;;;;;9.24;82.25;101666.59;5078087;28;20198;-74
2021/10/23 11:06:42;;;;;;;6.37;1.67;;;;;;;9.24;81.43;101677.84;5078939;28;20217;-74
2021/10/23 11:09:43;;;;;;;5.00;1.30;;;;;;;9.21;80.27;101684.81;5081016;28;20203;-76
2021/10/23 11:12:13;;;;;;;6.40;1.43;;;;;;;9.31;82.35;101680.47;5036491;28;20289;-74
2021/10/23 11:14:41;;;;;;;4.10;1.40;;;;;;;9.44;79.04;101688.19;5067718;28;20202;-74
2021/10/23 11:17:18;;;;;;;6.33;1.27;;;;;;;9.23;77.80;101685.66;5074278;28;20493;-75
2021/10/23 11:19:47;;;;;;;5.63;1.47;;;;;;;9.08;78.77;101686.59;5080905;28;20201;-74
2021/10/23 11:22:16;;;;;;;5.63;1.17;;;;;;;9.04;78.56;101690.94;5075540;28;20353;-74
2021/10/23 11:24:44;;;;;;;4.60;1.23;;;;;;;9.29;80.78;101688.25;5087112;28;20213;-75
2021/10/23 11:27:24;;;;;;;5.97;1.40;;;;;;;9.51;77.01;101702.03;5082092;28;20696;-74
2021/10/23 11:30:09;;;;;;;3.90;1.57;;;;;;;9.63;78.28;101699.38;5077775;28;20232;-74
2021/10/23 11:32:38;;;;;;;4.23;1.37;;;;;;;9.54;77.87;101694.22;5077589;28;20222;-75
2021/10/23 11:35:06;;;;;;;4.77;1.30;;;;;;;9.41;78.54;101700.34;5073912;28;20567;-76